createdAt,value
2023-04-02T00:01:01.106Z,6.49
2023-04-02T00:03:59.669Z,6.48
2023-04-02T00:06:30.608Z,6.52
2023-04-02T00:09:04.864Z,6.55
2023-04-02T00:11:36.149Z,6.55
2023-04-02T00:14:13.807Z,6.56
2023-04-02T00:16:40.987Z,6.48
2023-04-02T00:19:13.038Z,6.49
2023-04-02T00:21:42.531Z,6.47
2023-04-02T00:24:17.099Z,6.44
2023-04-02T00:26:45.352Z,6.34
2023-04-02T00:29:14.127Z,6.33
2023-04-02T00:31:52.008Z,6.36
2023-04-02T00:34:33.821Z,6.40
2023-04-02T00:37:02.064Z,6.46
2023-04-02T00:39:31.031Z,6.55
2023-04-02T00:42:05.906Z,6.60
2023-04-02T00:44:42.998Z,6.61
2023-04-02T00:47:20.570Z,6.64
2023-04-02T00:49:49.273Z,6.71
2023-04-02T00:52:17.626Z,6.74
2023-04-02T00:54:52.578Z,6.73
2023-04-02T00:57:25.922Z,6.73
2023-04-02T00:59:56.458Z,6.70
2023-04-02T01:02:31.122Z,6.71
2023-04-02T01:04:59.998Z,6.73
2023-04-02T01:07:34.818Z,6.71
2023-04-02T01:10:04.586Z,6.69
2023-04-02T01:12:45.146Z,6.71
2023-04-02T01:15:31.257Z,6.76
2023-04-02T01:18:01.349Z,6.77
2023-04-02T01:20:47.489Z,6.80
2023-04-02T01:23:14.497Z,6.77
2023-04-02T01:25:48.822Z,6.75
2023-04-02T01:28:19.776Z,6.72
2023-04-02T01:30:54.584Z,6.62
2023-04-02T01:33:26.214Z,6.68
2023-04-02T01:36:02.031Z,6.69
2023-04-02T01:38:36.885Z,6.67
2023-04-02T01:41:17.406Z,6.70
2023-04-02T01:43:53.302Z,6.69
2023-04-02T01:46:26.498Z,6.72
2023-04-02T01:48:54.359Z,6.70
2023-04-02T01:51:44.659Z,6.70
2023-04-02T01:54:14.183Z,6.71
2023-04-02T01:56:41.706Z,6.72
2023-04-02T01:59:08.703Z,6.71
2023-04-02T02:01:43.695Z,6.68
2023-04-02T02:04:13.479Z,6.68
2023-04-02T02:06:40.716Z,6.70
2023-04-02T02:09:09.134Z,6.70
2023-04-02T02:11:36.696Z,6.73
2023-04-02T02:14:15.063Z,6.71
2023-04-02T02:16:43.809Z,6.66
2023-04-02T02:19:37.250Z,6.64
2023-04-02T02:22:16.547Z,6.57
2023-04-02T02:24:43.805Z,6.48
2023-04-02T02:27:19.586Z,6.47
2023-04-02T02:29:47.250Z,6.48
2023-04-02T02:32:15.896Z,6.49
2023-04-02T02:34:56.753Z,6.47
2023-04-02T02:37:28.514Z,6.52
2023-04-02T02:40:00.750Z,6.55
2023-04-02T02:42:27.866Z,6.61
2023-04-02T02:44:56.766Z,6.69
2023-04-02T02:47:31.804Z,6.74
2023-04-02T02:50:06.950Z,6.83
2023-04-02T02:52:38.431Z,6.91
2023-04-02T02:55:19.208Z,7.01
2023-04-02T02:57:55.212Z,7.08
2023-04-02T03:00:25.374Z,7.10
2023-04-02T03:02:55.169Z,7.14
2023-04-02T03:05:26.387Z,7.19
2023-04-02T03:07:57.682Z,7.20
2023-04-02T03:10:42.549Z,7.25
2023-04-02T03:13:20.220Z,7.35
2023-04-02T03:15:58.903Z,7.38
2023-04-02T03:18:29.433Z,7.46
2023-04-02T03:20:59.807Z,7.47
2023-04-02T03:23:56.724Z,7.50
2023-04-02T03:26:38.199Z,7.53
2023-04-02T03:29:09.055Z,7.57
2023-04-02T03:31:41.948Z,7.55
2023-04-02T03:34:14.147Z,7.57
2023-04-02T03:36:43.965Z,7.53
2023-04-02T03:39:33.241Z,7.54
2023-04-02T03:42:06.724Z,7.54
2023-04-02T03:44:57.529Z,7.54
2023-04-02T03:47:30.995Z,7.54
2023-04-02T03:50:08.814Z,7.54
2023-04-02T03:52:37.641Z,7.52
2023-04-02T03:55:16.164Z,7.54
2023-04-02T03:58:05.421Z,7.51
2023-04-02T04:00:38.778Z,7.51
2023-04-02T04:03:11.806Z,7.54
2023-04-02T04:05:47.795Z,7.55
2023-04-02T04:08:17.972Z,7.64
2023-04-02T04:10:45.271Z,7.64
2023-04-02T04:13:23.013Z,7.74
2023-04-02T04:16:05.282Z,7.82
2023-04-02T04:18:42.231Z,7.87
2023-04-02T04:21:13.305Z,7.90
2023-04-02T04:23:41.377Z,8.01
2023-04-02T04:26:31.404Z,8.03
2023-04-02T04:29:14.864Z,8.04
2023-04-02T04:31:49.873Z,8.11
2023-04-02T04:34:23.162Z,8.11
2023-04-02T04:37:21.922Z,8.12
2023-04-02T04:39:51.366Z,8.16
2023-04-02T04:42:24.724Z,8.10
2023-04-02T04:45:08.334Z,8.17
2023-04-02T04:47:51.070Z,8.19
2023-04-02T04:50:37.192Z,8.18
2023-04-02T04:53:06.255Z,8.17
2023-04-02T04:55:33.668Z,8.23
2023-04-02T04:58:04.649Z,8.25
2023-04-02T05:00:37.823Z,8.29
2023-04-02T05:03:19.856Z,8.23
2023-04-02T05:05:47.202Z,8.29
2023-04-02T05:08:20.084Z,8.39
2023-04-02T05:11:00.740Z,8.49
2023-04-02T05:13:42.681Z,8.54
2023-04-02T05:16:12.427Z,8.57
2023-04-02T05:19:00.236Z,8.70
2023-04-02T05:21:34.733Z,8.92
2023-04-02T05:24:23.916Z,8.93
2023-04-02T05:26:52.235Z,9.12
2023-04-02T05:29:25.940Z,9.10
2023-04-02T05:32:04.257Z,9.14
2023-04-02T05:34:37.523Z,9.23
2023-04-02T05:37:12.792Z,9.14
2023-04-02T05:39:44.638Z,9.12
2023-04-02T05:42:18.006Z,9.10
2023-04-02T05:45:11.567Z,9.03
2023-04-02T05:47:41.333Z,9.01
2023-04-02T05:50:30.902Z,9.00
2023-04-02T05:53:04.365Z,8.98
2023-04-02T05:55:42.354Z,8.97
2023-04-02T06:00:59.976Z,9.07
2023-04-02T06:03:27.663Z,9.12
2023-04-02T06:05:58.244Z,9.06
2023-04-02T06:08:30.292Z,9.09
2023-04-02T06:11:13.782Z,9.12
2023-04-02T06:13:41.952Z,9.12
2023-04-02T06:16:13.302Z,9.11
2023-04-02T06:18:40.627Z,9.15
2023-04-02T06:21:07.542Z,9.16
2023-04-02T06:23:34.498Z,9.24
2023-04-02T06:26:07.879Z,9.47
2023-04-02T06:28:41.592Z,9.53
2023-04-02T06:31:23.624Z,9.52
2023-04-02T06:33:52.599Z,9.65
2023-04-02T06:36:21.923Z,9.64
2023-04-02T06:38:50.086Z,9.75
2023-04-02T06:41:24.050Z,9.81
2023-04-02T06:44:13.321Z,9.77
2023-04-02T06:47:12.609Z,9.95
2023-04-02T06:49:47.107Z,9.92
2023-04-02T06:52:26.801Z,9.95
2023-04-02T06:54:54.772Z,10.05
2023-04-02T06:57:23.602Z,10.10
2023-04-02T06:59:54.786Z,10.03
2023-04-02T07:02:42.220Z,10.09
2023-04-02T07:05:15.993Z,10.15
2023-04-02T07:07:53.688Z,10.16
2023-04-02T07:10:28.442Z,10.14
2023-04-02T07:13:17.317Z,10.14
2023-04-02T07:15:52.216Z,10.14
2023-04-02T07:18:31.179Z,10.17
2023-04-02T07:21:01.546Z,10.15
2023-04-02T07:23:33.146Z,10.15
2023-04-02T07:26:02.912Z,10.18
2023-04-02T07:28:33.426Z,10.28
2023-04-02T07:31:01.330Z,10.34
2023-04-02T07:33:30.561Z,10.38
2023-04-02T07:35:58.285Z,10.32
2023-04-02T07:38:25.281Z,10.47
2023-04-02T07:40:52.225Z,10.47
2023-04-02T07:43:19.243Z,10.52
2023-04-02T07:45:46.324Z,10.51
2023-04-02T07:48:13.991Z,10.48
2023-04-02T07:50:41.351Z,10.52
2023-04-02T07:53:09.462Z,10.66
2023-04-02T07:55:37.061Z,10.74
2023-04-02T07:58:04.406Z,10.72
2023-04-02T08:00:31.443Z,10.81
2023-04-02T08:02:58.826Z,10.94
2023-04-02T08:05:29.074Z,10.95
2023-04-02T08:07:57.140Z,10.99
2023-04-02T08:10:25.570Z,11.13
2023-04-02T08:12:53.325Z,11.02
2023-04-02T08:15:20.480Z,11.00
2023-04-02T08:17:50.217Z,11.19
2023-04-02T08:20:20.901Z,11.23
2023-04-02T08:22:48.866Z,11.28
2023-04-02T08:25:16.553Z,11.41
2023-04-02T08:27:44.854Z,11.48
2023-04-02T08:30:15.555Z,11.51
2023-04-02T08:32:43.197Z,11.66
2023-04-02T08:35:14.234Z,11.67
2023-04-02T08:37:47.017Z,11.89
2023-04-02T08:40:41.363Z,11.89
2023-04-02T08:43:08.397Z,11.97
2023-04-02T08:45:47.607Z,12.02
2023-04-02T08:48:16.424Z,12.21
2023-04-02T08:50:44.593Z,12.29
2023-04-02T08:53:17.487Z,12.32
2023-04-02T08:56:03.988Z,12.49
2023-04-02T08:58:49.548Z,12.32
2023-04-02T09:01:27.572Z,12.19
2023-04-02T09:03:57.848Z,12.40
2023-04-02T09:06:25.452Z,12.29
2023-04-02T09:08:56.986Z,12.46
2023-04-02T09:11:54.767Z,12.27
2023-04-02T09:14:32.153Z,12.40
2023-04-02T09:17:02.789Z,12.56
2023-04-02T09:19:42.257Z,12.78
2023-04-02T09:22:20.177Z,13.06
2023-04-02T09:24:51.406Z,13.32
2023-04-02T09:27:22.827Z,13.48
2023-04-02T09:29:55.460Z,13.36
2023-04-02T09:32:41.873Z,13.36
2023-04-02T09:35:25.269Z,13.11
2023-04-02T09:38:16.423Z,13.00
2023-04-02T09:40:48.988Z,12.88
2023-04-02T09:43:18.405Z,12.73
2023-04-02T09:45:55.546Z,12.75
2023-04-02T09:48:24.908Z,12.69
2023-04-02T09:51:03.417Z,12.69
2023-04-02T09:53:33.577Z,12.75
2023-04-02T09:56:10.840Z,12.73
2023-04-02T09:58:38.459Z,12.77
2023-04-02T10:01:05.583Z,12.75
2023-04-02T10:03:34.006Z,12.82
2023-04-02T10:06:09.128Z,12.86
2023-04-02T10:08:36.707Z,12.73
2023-04-02T10:11:06.473Z,12.34
2023-04-02T10:13:53.877Z,12.12
2023-04-02T10:16:39.900Z,12.15
2023-04-02T10:19:15.278Z,12.02
2023-04-02T10:21:44.030Z,12.12
2023-04-02T10:24:15.749Z,12.10
2023-04-02T10:26:55.807Z,12.17
2023-04-02T10:29:32.126Z,12.18
2023-04-02T10:31:59.140Z,12.34
2023-04-02T10:34:50.747Z,12.63
2023-04-02T10:37:43.656Z,12.76
2023-04-02T10:40:42.630Z,12.79
2023-04-02T10:43:30.719Z,12.62
2023-04-02T10:46:01.355Z,12.41
2023-04-02T10:48:35.831Z,12.13
2023-04-02T10:51:07.379Z,12.20
2023-04-02T10:53:40.886Z,12.15
2023-04-02T10:56:12.113Z,12.09
2023-04-02T10:58:58.439Z,12.09
2023-04-02T11:01:29.649Z,12.14
2023-04-02T11:04:08.741Z,12.14
2023-04-02T11:06:43.032Z,12.20
2023-04-02T11:09:22.376Z,12.55
2023-04-02T11:11:51.677Z,12.72
2023-04-02T11:14:21.869Z,12.95
2023-04-02T11:16:50.313Z,13.17
2023-04-02T11:19:17.345Z,13.59
2023-04-02T11:21:58.096Z,13.88
2023-04-02T11:24:30.180Z,13.85
2023-04-02T11:27:17.427Z,13.79
2023-04-02T11:29:45.405Z,13.70
2023-04-02T11:32:25.510Z,13.95
2023-04-02T11:35:06.534Z,14.03
2023-04-02T11:37:45.301Z,13.98
2023-04-02T11:40:12.519Z,13.72
2023-04-02T11:42:47.473Z,13.55
2023-04-02T11:45:21.021Z,13.54
2023-04-02T11:48:09.439Z,13.38
2023-04-02T11:50:36.809Z,13.23
2023-04-02T11:53:03.819Z,13.20
2023-04-02T11:55:48.967Z,13.41
2023-04-02T11:58:34.817Z,13.31
2023-04-02T12:01:21.087Z,13.52
2023-04-02T12:04:07.103Z,13.48
2023-04-02T12:06:52.723Z,13.54
2023-04-02T12:09:25.131Z,13.56
2023-04-02T12:11:57.272Z,13.58
2023-04-02T12:14:35.491Z,13.63
2023-04-02T12:17:06.350Z,13.60
2023-04-02T12:19:35.151Z,13.80
2023-04-02T12:22:03.594Z,13.73
2023-04-02T12:24:31.606Z,13.60
2023-04-02T12:27:28.448Z,13.81
2023-04-02T12:30:00.230Z,13.69
2023-04-02T12:32:30.058Z,13.72
2023-04-02T12:34:58.524Z,13.75
2023-04-02T12:37:27.403Z,13.63
2023-04-02T12:39:59.171Z,13.77
2023-04-02T12:42:31.725Z,13.81
2023-04-02T12:45:01.684Z,13.85
2023-04-02T12:47:29.400Z,13.89
2023-04-02T12:50:01.930Z,13.89
2023-04-02T12:52:31.101Z,14.09
2023-04-02T12:54:59.923Z,14.27
2023-04-02T12:57:28.185Z,14.33
2023-04-02T13:00:04.528Z,14.53
2023-04-02T13:02:44.991Z,14.36
2023-04-02T13:05:13.396Z,14.31
2023-04-02T13:07:48.435Z,14.34
2023-04-02T13:10:27.798Z,14.30
2023-04-02T13:12:56.002Z,14.31
2023-04-02T13:15:26.580Z,14.37
2023-04-02T13:18:19.035Z,14.45
2023-04-02T13:21:01.756Z,14.59
2023-04-02T13:23:37.983Z,14.52
2023-04-02T13:26:22.296Z,14.34
2023-04-02T13:29:00.530Z,14.25
2023-04-02T13:31:29.476Z,14.26
2023-04-02T13:33:57.905Z,14.24
2023-04-02T13:36:31.254Z,14.30
2023-04-02T13:39:05.762Z,14.32
2023-04-02T13:41:57.234Z,14.11
2023-04-02T13:44:25.928Z,14.45
2023-04-02T13:46:54.867Z,14.44
2023-04-02T13:49:23.734Z,14.41
2023-04-02T13:51:53.450Z,14.39
2023-04-02T13:54:21.149Z,14.26
2023-04-02T13:56:49.926Z,14.09
2023-04-02T13:59:18.149Z,14.06
2023-04-02T14:01:47.801Z,14.04
2023-04-02T14:04:22.896Z,13.97
2023-04-02T14:07:09.755Z,13.92
2023-04-02T14:09:58.175Z,13.99
2023-04-02T14:12:45.483Z,13.98
2023-04-02T14:15:22.179Z,13.87
2023-04-02T14:18:11.910Z,13.96
2023-04-02T14:21:02.564Z,13.94
2023-04-02T14:23:33.427Z,14.18
2023-04-02T14:26:10.925Z,14.32
2023-04-02T14:29:02.212Z,14.50
2023-04-02T14:31:35.191Z,14.43
2023-04-02T14:34:11.307Z,14.29
2023-04-02T14:36:40.250Z,14.50
2023-04-02T14:39:30.698Z,14.62
2023-04-02T14:42:06.589Z,14.44
2023-04-02T14:44:38.453Z,14.51
2023-04-02T14:47:17.543Z,14.30
2023-04-02T14:49:48.643Z,14.11
2023-04-02T14:52:21.955Z,14.05
2023-04-02T14:55:03.635Z,13.92
2023-04-02T14:57:33.937Z,13.98
2023-04-02T15:00:12.886Z,13.87
2023-04-02T15:02:46.978Z,13.65
2023-04-02T15:05:30.131Z,13.48
2023-04-02T15:08:05.581Z,13.49
2023-04-02T15:10:40.470Z,13.51
2023-04-02T15:13:20.621Z,13.32
2023-04-02T15:16:10.232Z,13.33
2023-04-02T15:18:39.107Z,13.34
2023-04-02T15:21:26.232Z,13.18
2023-04-02T15:23:57.216Z,13.03
2023-04-02T15:26:35.563Z,13.05
2023-04-02T15:29:09.349Z,13.02
2023-04-02T15:31:45.133Z,12.91
2023-04-02T15:34:13.630Z,12.92
2023-04-02T15:37:06.468Z,12.88
2023-04-02T15:39:53.308Z,12.84
2023-04-02T15:42:34.055Z,12.47
2023-04-02T15:45:02.417Z,12.34
2023-04-02T15:47:41.426Z,12.16
2023-04-02T15:50:40.874Z,12.02
2023-04-02T15:53:21.186Z,11.82
2023-04-02T15:56:04.432Z,11.72
2023-04-02T15:58:32.355Z,11.65
2023-04-02T16:01:14.503Z,11.70
2023-04-02T16:03:50.224Z,11.71
2023-04-02T16:06:19.055Z,11.63
2023-04-02T16:08:57.511Z,11.64
2023-04-02T16:11:25.619Z,11.60
2023-04-02T16:13:54.489Z,11.57
2023-04-02T16:16:25.970Z,11.62
2023-04-02T16:19:16.055Z,11.57
2023-04-02T16:21:49.693Z,11.63
2023-04-02T16:24:18.365Z,11.62
2023-04-02T16:27:08.909Z,11.63
2023-04-02T16:29:55.125Z,11.56
2023-04-02T16:32:23.940Z,11.71
2023-04-02T16:34:59.503Z,11.68
2023-04-02T16:37:39.298Z,11.65
2023-04-02T16:40:22.447Z,11.68
2023-04-02T16:43:10.447Z,11.72
2023-04-02T16:45:56.931Z,11.62
2023-04-02T16:48:38.563Z,11.56
2023-04-02T16:51:12.244Z,11.63
2023-04-02T16:53:54.550Z,11.62
2023-04-02T16:56:31.170Z,11.58
2023-04-02T16:58:58.223Z,11.68
2023-04-02T17:01:35.818Z,11.74
2023-04-02T17:04:12.134Z,11.77
2023-04-02T17:06:45.304Z,11.84
2023-04-02T17:09:23.050Z,11.86
2023-04-02T17:11:55.966Z,11.86
2023-04-02T17:14:25.089Z,11.87
2023-04-02T17:16:56.801Z,11.93
2023-04-02T17:19:29.353Z,11.93
2023-04-02T17:22:06.292Z,11.88
2023-04-02T17:24:33.292Z,11.94
2023-04-02T17:27:05.587Z,11.98
2023-04-02T17:29:35.798Z,11.95
2023-04-02T17:32:04.122Z,11.83
2023-04-02T17:34:31.519Z,11.85
2023-04-02T17:37:13.709Z,11.77
2023-04-02T17:39:59.139Z,11.75
2023-04-02T17:42:41.250Z,11.76
2023-04-02T17:45:21.515Z,11.70
2023-04-02T17:47:56.904Z,11.66
2023-04-02T17:50:32.928Z,11.57
2023-04-02T17:53:05.079Z,11.64
2023-04-02T17:55:41.312Z,11.62
2023-04-02T17:58:11.659Z,11.61
2023-04-02T18:00:59.246Z,11.57
2023-04-02T18:03:28.669Z,11.63
2023-04-02T18:06:00.032Z,11.65
2023-04-02T18:08:39.006Z,11.63
2023-04-02T18:11:06.329Z,11.58
2023-04-02T18:13:35.914Z,11.49
2023-04-02T18:16:02.869Z,11.54
2023-04-02T18:18:42.111Z,11.54
2023-04-02T18:21:19.119Z,11.36
2023-04-02T18:24:05.376Z,11.38
2023-04-02T18:26:33.540Z,11.41
2023-04-02T18:29:12.805Z,11.39
2023-04-02T18:31:50.249Z,11.35
2023-04-02T18:34:18.988Z,11.30
2023-04-02T18:36:55.647Z,11.25
2023-04-02T18:39:25.941Z,11.25
2023-04-02T18:41:59.817Z,11.21
2023-04-02T18:44:36.627Z,11.17
2023-04-02T18:47:39.215Z,11.14
2023-04-02T18:50:24.728Z,11.12
2023-04-02T18:52:55.738Z,11.16
2023-04-02T18:55:30.909Z,11.08
2023-04-02T18:58:13.437Z,11.06
2023-04-02T19:00:45.174Z,11.02
2023-04-02T19:03:34.590Z,11.00
2023-04-02T19:06:05.936Z,10.91
2023-04-02T19:08:48.375Z,10.90
2023-04-02T19:11:19.637Z,10.91
2023-04-02T19:13:48.615Z,10.86
2023-04-02T19:16:19.840Z,10.88
2023-04-02T19:18:46.995Z,10.88
2023-04-02T19:21:33.596Z,10.86
2023-04-02T19:24:22.883Z,10.83
2023-04-02T19:26:54.639Z,10.82
2023-04-02T19:29:30.005Z,10.82
2023-04-02T19:32:08.539Z,10.83
2023-04-02T19:34:55.914Z,10.77
2023-04-02T19:37:32.455Z,10.80
2023-04-02T19:40:12.864Z,10.76
2023-04-02T19:42:51.770Z,10.77
2023-04-02T19:45:28.942Z,10.71
2023-04-02T19:47:57.284Z,10.73
2023-04-02T19:50:24.554Z,10.72
2023-04-02T19:52:51.764Z,10.71
2023-04-02T19:55:19.152Z,10.68
2023-04-02T19:57:46.156Z,10.71
2023-04-02T20:00:14.935Z,10.63
2023-04-02T20:02:42.181Z,10.64
2023-04-02T20:05:09.931Z,10.65
2023-04-02T20:07:39.356Z,10.64
2023-04-02T20:10:07.203Z,10.67
2023-04-02T20:12:34.946Z,10.70
2023-04-02T20:15:02.018Z,10.67
2023-04-02T20:17:29.435Z,10.68
2023-04-02T20:19:57.544Z,10.64
2023-04-02T20:22:24.868Z,10.61
2023-04-02T20:24:52.546Z,10.61
2023-04-02T20:27:19.919Z,10.60
2023-04-02T20:29:50.778Z,10.62
2023-04-02T20:32:18.075Z,10.62
2023-04-02T20:34:45.421Z,10.63
2023-04-02T20:37:13.466Z,10.62
2023-04-02T20:39:43.694Z,10.58
2023-04-02T20:42:11.355Z,10.61
2023-04-02T20:44:38.543Z,10.55
2023-04-02T20:47:07.247Z,10.50
2023-04-02T20:49:35.024Z,10.52
2023-04-02T20:52:02.299Z,10.54
2023-04-02T20:54:29.235Z,10.58
2023-04-02T20:56:56.403Z,10.55
2023-04-02T20:59:23.302Z,10.57
2023-04-02T21:01:50.428Z,10.58
2023-04-02T21:04:17.660Z,10.54
2023-04-02T21:06:44.736Z,10.49
2023-04-02T21:09:15.042Z,10.51
2023-04-02T21:11:42.156Z,10.57
2023-04-02T21:14:09.572Z,10.55
2023-04-02T21:16:36.724Z,10.63
2023-04-02T21:19:05.653Z,10.53
2023-04-02T21:21:33.370Z,10.58
2023-04-02T21:24:09.602Z,10.51
2023-04-02T21:26:39.364Z,10.65
2023-04-02T21:29:10.729Z,10.53
2023-04-02T21:31:39.348Z,10.50
2023-04-02T21:34:13.086Z,10.54
2023-04-02T21:36:51.661Z,10.50
2023-04-02T21:39:23.010Z,10.49
2023-04-02T21:41:51.141Z,10.46
2023-04-02T21:44:19.709Z,10.43
2023-04-02T21:46:46.899Z,10.51
2023-04-02T21:49:16.467Z,10.57
2023-04-02T21:51:44.734Z,10.53
2023-04-02T21:54:11.666Z,10.59
2023-04-02T21:56:40.147Z,10.53
2023-04-02T21:59:08.518Z,10.51
2023-04-02T22:01:38.727Z,10.46
2023-04-02T22:04:08.272Z,10.45
2023-04-02T22:06:39.748Z,10.40
2023-04-02T22:09:09.618Z,10.44
2023-04-02T22:11:41.304Z,10.41
2023-04-02T22:14:08.673Z,10.46
2023-04-02T22:16:35.885Z,10.44
2023-04-02T22:19:04.151Z,10.38
2023-04-02T22:21:31.774Z,10.38
2023-04-02T22:24:05.729Z,10.37
2023-04-02T22:26:33.523Z,10.46
2023-04-02T22:29:01.386Z,10.37
2023-04-02T22:31:29.811Z,10.37
2023-04-02T22:33:57.703Z,10.35
2023-04-02T22:36:25.236Z,10.34
2023-04-02T22:38:52.478Z,10.34
2023-04-02T22:41:22.058Z,10.34
2023-04-02T22:43:49.161Z,10.28
2023-04-02T22:46:17.181Z,10.31
2023-04-02T22:48:44.617Z,10.32
2023-04-02T22:51:13.074Z,10.29
2023-04-02T22:53:40.149Z,10.27
2023-04-02T22:56:08.103Z,10.26
2023-04-02T22:58:35.870Z,10.28
2023-04-02T23:01:15.687Z,10.31
2023-04-02T23:03:43.240Z,10.31
2023-04-02T23:06:12.061Z,10.30
2023-04-02T23:08:39.593Z,10.38
2023-04-02T23:11:11.269Z,10.35
2023-04-02T23:13:39.206Z,10.37
2023-04-02T23:16:08.320Z,10.41
2023-04-02T23:18:36.065Z,10.29
2023-04-02T23:21:03.160Z,10.30
2023-04-02T23:23:31.806Z,10.26
2023-04-02T23:26:15.843Z,10.19
2023-04-02T23:28:42.979Z,10.16
2023-04-02T23:31:13.467Z,10.16
2023-04-02T23:33:40.648Z,10.19
2023-04-02T23:36:09.038Z,10.15
2023-04-02T23:38:36.489Z,10.22
2023-04-02T23:41:03.655Z,10.20
2023-04-02T23:43:30.679Z,10.19
2023-04-02T23:45:57.728Z,10.20
2023-04-02T23:48:24.746Z,10.21
2023-04-02T23:50:51.619Z,10.20
2023-04-02T23:53:18.933Z,10.15
2023-04-02T23:55:46.371Z,10.15
2023-04-02T23:58:13.387Z,10.17
